sensor_id;sensor_type;location;lat;lon;timestamp;P1;durP1;ratioP1;P2;durP2;ratioP2
14692;SDS011;7435;50.842;4.258;2022-07-01T09:20:41;1042.78;;;974.70;;
14692;SDS011;7435;50.842;4.258;2022-07-01T09:23:09;1049.07;;;980.67;;
14692;SDS011;7435;50.842;4.258;2022-07-01T09:25:44;1062.10;;;992.88;;
14692;SDS011;7435;50.842;4.258;2022-07-01T09:28:13;1062.68;;;992.50;;
14692;SDS011;7435;50.842;4.258;2022-07-01T09:30:41;1046.00;;;978.17;;
14692;SDS011;7435;50.842;4.258;2022-07-01T09:33:10;1031.53;;;964.70;;
14692;SDS011;7435;50.842;4.258;2022-07-01T09:35:41;1053.60;;;984.38;;
14692;SDS011;7435;50.842;4.258;2022-07-01T09:38:10;1053.88;;;985.15;;
14692;SDS011;7435;50.842;4.258;2022-07-01T09:40:47;1057.47;;;988.77;;
14692;SDS011;7435;50.842;4.258;2022-07-01T09:43:16;1099.05;;;999.90;;
14692;SDS011;7435;50.842;4.258;2022-07-01T09:45:50;1085.18;;;999.90;;
14692;SDS011;7435;50.842;4.258;2022-07-01T09:48:17;1074.50;;;999.90;;
14692;SDS011;7435;50.842;4.258;2022-07-01T09:50:46;1093.45;;;999.90;;
14692;SDS011;7435;50.842;4.258;2022-07-01T09:53:13;1124.40;;;999.90;;
14692;SDS011;7435;50.842;4.258;2022-07-01T09:55:41;1172.05;;;999.90;;
14692;SDS011;7435;50.842;4.258;2022-07-01T09:58:08;1155.13;;;999.90;;
14692;SDS011;7435;50.842;4.258;2022-07-01T10:00:38;1153.43;;;999.90;;
14692;SDS011;7435;50.842;4.258;2022-07-01T10:03:05;1162.65;;;999.90;;
14692;SDS011;7435;50.842;4.258;2022-07-01T10:05:38;1181.53;;;999.90;;
14692;SDS011;7435;50.842;4.258;2022-07-01T10:08:22;1173.80;;;999.90;;
14692;SDS011;7435;50.842;4.258;2022-07-01T10:10:57;1174.10;;;999.90;;
14692;SDS011;7435;50.842;4.258;2022-07-01T10:13:26;1183.35;;;999.90;;
14692;SDS011;7435;50.842;4.258;2022-07-01T10:15:54;1189.83;;;999.90;;
14692;SDS011;7435;50.842;4.258;2022-07-01T10:18:22;1181.78;;;999.90;;
14692;SDS011;7435;50.842;4.258;2022-07-01T10:20:50;1165.07;;;999.90;;
14692;SDS011;7435;50.842;4.258;2022-07-01T10:23:19;1157.00;;;999.90;;
14692;SDS011;7435;50.842;4.258;2022-07-01T10:25:48;1139.53;;;999.90;;
14692;SDS011;7435;50.842;4.258;2022-07-01T10:28:17;1130.43;;;999.90;;
14692;SDS011;7435;50.842;4.258;2022-07-01T10:30:54;1127.57;;;999.90;;
14692;SDS011;7435;50.842;4.258;2022-07-01T10:33:29;1129.00;;;999.90;;
14692;SDS011;7435;50.842;4.258;2022-07-01T10:36:02;1156.35;;;999.90;;
14692;SDS011;7435;50.842;4.258;2022-07-01T10:38:30;1189.20;;;999.90;;
14692;SDS011;7435;50.842;4.258;2022-07-01T10:40:58;1224.03;;;999.90;;
14692;SDS011;7435;50.842;4.258;2022-07-01T10:43:34;1196.63;;;999.90;;
14692;SDS011;7435;50.842;4.258;2022-07-01T10:46:02;1209.28;;;999.90;;
14692;SDS011;7435;50.842;4.258;2022-07-01T10:48:30;1216.97;;;999.90;;
14692;SDS011;7435;50.842;4.258;2022-07-01T10:50:58;1191.78;;;999.90;;
14692;SDS011;7435;50.842;4.258;2022-07-01T10:53:25;1180.72;;;999.90;;
14692;SDS011;7435;50.842;4.258;2022-07-01T10:55:57;1175.45;;;999.90;;
14692;SDS011;7435;50.842;4.258;2022-07-01T10:58:36;1179.32;;;999.90;;
14692;SDS011;7435;50.842;4.258;2022-07-01T11:01:04;1189.35;;;999.90;;
14692;SDS011;7435;50.842;4.258;2022-07-01T11:03:33;1211.60;;;999.90;;
14692;SDS011;7435;50.842;4.258;2022-07-01T11:06:01;1249.63;;;999.90;;
14692;SDS011;7435;50.842;4.258;2022-07-01T11:08:28;1258.80;;;999.90;;
14692;SDS011;7435;50.842;4.258;2022-07-01T11:10:58;1262.20;;;999.90;;
14692;SDS011;7435;50.842;4.258;2022-07-01T11:13:27;1262.13;;;999.90;;
14692;SDS011;7435;50.842;4.258;2022-07-01T11:15:55;1276.35;;;999.90;;
14692;SDS011;7435;50.842;4.258;2022-07-01T11:18:23;1274.88;;;999.90;;
14692;SDS011;7435;50.842;4.258;2022-07-01T11:20:50;1267.93;;;999.90;;
14692;SDS011;7435;50.842;4.258;2022-07-01T11:23:17;1269.60;;;999.90;;
14692;SDS011;7435;50.842;4.258;2022-07-01T11:25:47;1269.53;;;999.90;;
14692;SDS011;7435;50.842;4.258;2022-07-01T11:28:15;1263.22;;;999.90;;
14692;SDS011;7435;50.842;4.258;2022-07-01T11:30:42;1254.22;;;999.90;;
14692;SDS011;7435;50.842;4.258;2022-07-01T11:33:10;1230.63;;;999.90;;
14692;SDS011;7435;50.842;4.258;2022-07-01T11:35:38;1221.88;;;999.90;;
14692;SDS011;7435;50.842;4.258;2022-07-01T11:38:23;1065.60;;;995.60;;
14692;SDS011;7435;50.842;4.258;2022-07-01T11:41:10;1169.10;;;999.90;;
14692;SDS011;7435;50.842;4.258;2022-07-01T11:43:43;1160.00;;;999.90;;
14692;SDS011;7435;50.842;4.258;2022-07-01T11:46:11;1164.68;;;999.90;;
14692;SDS011;7435;50.842;4.258;2022-07-01T11:48:40;1154.22;;;999.90;;
14692;SDS011;7435;50.842;4.258;2022-07-01T11:51:09;1145.82;;;999.90;;
14692;SDS011;7435;50.842;4.258;2022-07-01T11:53:37;1146.72;;;999.90;;
14692;SDS011;7435;50.842;4.258;2022-07-01T11:56:04;1148.53;;;999.90;;
14692;SDS011;7435;50.842;4.258;2022-07-01T11:58:42;1139.93;;;999.90;;
14692;SDS011;7435;50.842;4.258;2022-07-01T12:01:10;1120.00;;;999.90;;
14692;SDS011;7435;50.842;4.258;2022-07-01T12:03:37;1128.65;;;999.90;;
14692;SDS011;7435;50.842;4.258;2022-07-01T12:06:06;1134.30;;;999.90;;
14692;SDS011;7435;50.842;4.258;2022-07-01T12:08:35;1155.95;;;999.90;;
14692;SDS011;7435;50.842;4.258;2022-07-01T12:11:04;1156.20;;;999.90;;
14692;SDS011;7435;50.842;4.258;2022-07-01T12:13:34;1159.78;;;999.90;;
14692;SDS011;7435;50.842;4.258;2022-07-01T12:16:06;1157.60;;;999.90;;
14692;SDS011;7435;50.842;4.258;2022-07-01T12:18:34;1160.20;;;999.90;;
14692;SDS011;7435;50.842;4.258;2022-07-01T12:21:05;1183.80;;;999.90;;
14692;SDS011;7435;50.842;4.258;2022-07-01T12:23:33;1189.05;;;999.90;;
14692;SDS011;7435;50.842;4.258;2022-07-01T12:26:04;1207.40;;;999.90;;
14692;SDS011;7435;50.842;4.258;2022-07-01T12:28:38;1063.67;;;993.73;;
14692;SDS011;7435;50.842;4.258;2022-07-01T12:31:06;1230.32;;;999.90;;
14692;SDS011;7435;50.842;4.258;2022-07-01T12:33:35;1235.07;;;999.90;;
14692;SDS011;7435;50.842;4.258;2022-07-01T12:36:03;1230.35;;;999.90;;
14692;SDS011;7435;50.842;4.258;2022-07-01T12:38:32;1227.07;;;999.90;;
14692;SDS011;7435;50.842;4.258;2022-07-01T12:40:59;1214.82;;;999.90;;
14692;SDS011;7435;50.842;4.258;2022-07-01T12:43:27;1226.30;;;999.90;;
14692;SDS011;7435;50.842;4.258;2022-07-01T12:45:58;1238.30;;;999.90;;
14692;SDS011;7435;50.842;4.258;2022-07-01T12:48:26;1240.03;;;999.90;;
14692;SDS011;7435;50.842;4.258;2022-07-01T12:50:54;1232.28;;;999.90;;
14692;SDS011;7435;50.842;4.258;2022-07-01T12:53:21;1057.17;;;988.30;;
14692;SDS011;7435;50.842;4.258;2022-07-01T12:55:54;1182.28;;;999.90;;
14692;SDS011;7435;50.842;4.258;2022-07-01T12:58:23;1176.88;;;999.90;;
14692;SDS011;7435;50.842;4.258;2022-07-01T13:00:52;1185.03;;;999.90;;
14692;SDS011;7435;50.842;4.258;2022-07-01T13:03:20;1192.03;;;999.90;;
14692;SDS011;7435;50.842;4.258;2022-07-01T13:05:47;1180.90;;;999.90;;
14692;SDS011;7435;50.842;4.258;2022-07-01T13:08:15;1157.17;;;999.90;;
14692;SDS011;7435;50.842;4.258;2022-07-01T13:10:43;1165.28;;;999.90;;
14692;SDS011;7435;50.842;4.258;2022-07-01T13:13:13;1014.97;;;947.13;;
14692;SDS011;7435;50.842;4.258;2022-07-01T13:15:42;1128.80;;;999.90;;
14692;SDS011;7435;50.842;4.258;2022-07-01T13:18:09;1116.03;;;999.90;;
14692;SDS011;7435;50.842;4.258;2022-07-01T13:20:39;1123.93;;;999.90;;
14692;SDS011;7435;50.842;4.258;2022-07-01T13:23:06;1124.25;;;999.90;;
14692;SDS011;7435;50.842;4.258;2022-07-01T13:25:33;1114.53;;;999.90;;
14692;SDS011;7435;50.842;4.258;2022-07-01T13:28:01;1110.35;;;999.90;;
14692;SDS011;7435;50.842;4.258;2022-07-01T13:30:30;1101.38;;;999.90;;
14692;SDS011;7435;50.842;4.258;2022-07-01T13:32:57;1097.20;;;999.90;;
14692;SDS011;7435;50.842;4.258;2022-07-01T13:35:24;1098.28;;;999.90;;
14692;SDS011;7435;50.842;4.258;2022-07-01T13:37:52;1089.28;;;999.90;;
14692;SDS011;7435;50.842;4.258;2022-07-01T13:40:19;1071.35;;;999.90;;
14692;SDS011;7435;50.842;4.258;2022-07-01T13:42:47;1060.50;;;993.22;;
14692;SDS011;7435;50.842;4.258;2022-07-01T13:45:15;1061.13;;;993.95;;
14692;SDS011;7435;50.842;4.258;2022-07-01T13:47:43;1068.10;;;999.88;;
14692;SDS011;7435;50.842;4.258;2022-07-01T13:50:10;1061.72;;;994.58;;
14692;SDS011;7435;50.842;4.258;2022-07-01T13:52:40;1060.45;;;993.20;;
14692;SDS011;7435;50.842;4.258;2022-07-01T13:55:07;1065.65;;;997.97;;
14692;SDS011;7435;50.842;4.258;2022-07-01T13:57:34;1046.85;;;980.50;;
14692;SDS011;7435;50.842;4.258;2022-07-01T14:00:02;1049.85;;;983.25;;
14692;SDS011;7435;50.842;4.258;2022-07-01T14:02:30;1037.83;;;971.90;;
14692;SDS011;7435;50.842;4.258;2022-07-01T14:05:00;1033.60;;;967.75;;
14692;SDS011;7435;50.842;4.258;2022-07-01T14:07:28;1030.45;;;964.53;;
14692;SDS011;7435;50.842;4.258;2022-07-01T14:09:58;1028.88;;;963.47;;
14692;SDS011;7435;50.842;4.258;2022-07-01T14:12:27;1029.25;;;963.65;;
14692;SDS011;7435;50.842;4.258;2022-07-01T14:28:23;1047.45;;;981.15;;
14692;SDS011;7435;50.842;4.258;2022-07-01T14:30:51;1048.50;;;982.08;;
14692;SDS011;7435;50.842;4.258;2022-07-01T14:33:19;1061.43;;;994.17;;
14692;SDS011;7435;50.842;4.258;2022-07-01T14:35:46;1061.78;;;994.28;;
14692;SDS011;7435;50.842;4.258;2022-07-01T14:38:15;1055.72;;;988.75;;
14692;SDS011;7435;50.842;4.258;2022-07-01T14:40:42;1043.55;;;977.38;;
14692;SDS011;7435;50.842;4.258;2022-07-01T14:43:10;1060.30;;;993.10;;
14692;SDS011;7435;50.842;4.258;2022-07-01T14:45:39;1034.00;;;968.22;;
14692;SDS011;7435;50.842;4.258;2022-07-01T14:48:07;1049.55;;;983.10;;
14692;SDS011;7435;50.842;4.258;2022-07-01T14:50:36;1066.85;;;999.45;;
14692;SDS011;7435;50.842;4.258;2022-07-01T14:53:03;1071.15;;;999.90;;
14692;SDS011;7435;50.842;4.258;2022-07-01T14:55:33;1077.90;;;999.90;;
14692;SDS011;7435;50.842;4.258;2022-07-01T14:58:00;1073.22;;;999.90;;
14692;SDS011;7435;50.842;4.258;2022-07-01T15:00:27;1058.88;;;991.85;;
14692;SDS011;7435;50.842;4.258;2022-07-01T15:02:57;1059.17;;;992.07;;
14692;SDS011;7435;50.842;4.258;2022-07-01T15:05:25;1054.23;;;986.43;;
14692;SDS011;7435;50.842;4.258;2022-07-01T15:07:52;1055.55;;;988.83;;
14692;SDS011;7435;50.842;4.258;2022-07-01T15:10:20;1060.57;;;993.60;;
14692;SDS011;7435;50.842;4.258;2022-07-01T15:12:47;1050.93;;;984.35;;
14692;SDS011;7435;50.842;4.258;2022-07-01T15:15:16;1051.07;;;984.58;;
14692;SDS011;7435;50.842;4.258;2022-07-01T15:17:44;1039.80;;;973.88;;
14692;SDS011;7435;50.842;4.258;2022-07-01T15:20:15;1036.35;;;970.33;;
14692;SDS011;7435;50.842;4.258;2022-07-01T15:22:44;1035.68;;;969.42;;
14692;SDS011;7435;50.842;4.258;2022-07-01T15:25:11;1032.13;;;966.20;;
14692;SDS011;7435;50.842;4.258;2022-07-01T15:27:39;1031.30;;;965.58;;
14692;SDS011;7435;50.842;4.258;2022-07-01T15:30:07;1052.07;;;985.03;;
14692;SDS011;7435;50.842;4.258;2022-07-01T15:32:35;1034.57;;;968.40;;
14692;SDS011;7435;50.842;4.258;2022-07-01T15:35:07;1050.70;;;983.88;;
14692;SDS011;7435;50.842;4.258;2022-07-01T15:37:48;1053.63;;;986.90;;
14692;SDS011;7435;50.842;4.258;2022-07-01T15:40:16;1045.18;;;978.90;;
14692;SDS011;7435;50.842;4.258;2022-07-01T15:42:57;1052.85;;;986.05;;
14692;SDS011;7435;50.842;4.258;2022-07-01T15:45:25;1051.40;;;984.30;;
14692;SDS011;7435;50.842;4.258;2022-07-01T15:47:55;1059.18;;;992.15;;
14692;SDS011;7435;50.842;4.258;2022-07-01T15:50:53;1050.03;;;983.63;;
14692;SDS011;7435;50.842;4.258;2022-07-01T15:53:22;1050.00;;;983.37;;
14692;SDS011;7435;50.842;4.258;2022-07-01T15:55:54;1064.70;;;997.17;;
14692;SDS011;7435;50.842;4.258;2022-07-01T15:58:21;1046.37;;;980.27;;
14692;SDS011;7435;50.842;4.258;2022-07-01T16:00:49;1035.78;;;970.05;;
14692;SDS011;7435;50.842;4.258;2022-07-01T16:03:16;1047.25;;;980.78;;
14692;SDS011;7435;50.842;4.258;2022-07-01T16:05:44;1048.65;;;981.92;;
14692;SDS011;7435;50.842;4.258;2022-07-01T16:08:13;1045.75;;;979.50;;
14692;SDS011;7435;50.842;4.258;2022-07-01T16:10:46;1044.72;;;978.33;;
14692;SDS011;7435;50.842;4.258;2022-07-01T16:13:15;1046.05;;;979.72;;
14692;SDS011;7435;50.842;4.258;2022-07-01T16:15:44;1040.88;;;974.78;;
14692;SDS011;7435;50.842;4.258;2022-07-01T16:18:12;1041.43;;;975.33;;
14692;SDS011;7435;50.842;4.258;2022-07-01T17:03:16;1024.32;;;959.13;;
14692;SDS011;7435;50.842;4.258;2022-07-01T17:09:15;1021.80;;;956.72;;
14692;SDS011;7435;50.842;4.258;2022-07-01T17:12:21;1021.63;;;956.53;;
14692;SDS011;7435;50.842;4.258;2022-07-01T19:44:59;1006.63;;;942.00;;
